createdAt,value
2022-11-22T00:00:57.708Z,1.35
2022-11-22T00:03:25.813Z,1.60
2022-11-22T00:05:53.866Z,1.73
2022-11-22T00:08:22.025Z,1.73
2022-11-22T00:10:52.342Z,1.48
2022-11-22T00:13:21.213Z,1.42
2022-11-22T00:15:59.296Z,1.70
2022-11-22T00:18:27.400Z,1.33
2022-11-22T00:20:56.215Z,1.20
2022-11-22T00:23:24.357Z,1.60
2022-11-22T00:25:53.785Z,1.30
2022-11-22T00:28:21.912Z,1.10
2022-11-22T00:30:49.975Z,1.10
2022-11-22T00:33:18.092Z,1.40
2022-11-22T00:35:46.551Z,1.17
2022-11-22T00:38:14.646Z,1.02
2022-11-22T00:40:42.709Z,1.00
2022-11-22T00:43:12.158Z,0.85
2022-11-22T00:45:42.028Z,1.30
2022-11-22T00:48:10.425Z,1.10
2022-11-22T00:50:38.490Z,1.10
2022-11-22T00:53:06.587Z,1.05
2022-11-22T00:55:34.686Z,1.10
2022-11-22T00:58:02.775Z,1.10
2022-11-22T01:00:32.315Z,1.27
2022-11-22T01:03:00.419Z,0.80
2022-11-22T01:05:28.462Z,0.95
2022-11-22T01:07:56.613Z,1.27
2022-11-22T01:10:24.752Z,1.42
2022-11-22T01:12:52.836Z,0.98
2022-11-22T01:15:20.964Z,1.15
2022-11-22T01:17:50.385Z,1.00
2022-11-22T01:20:18.558Z,0.85
2022-11-22T01:22:46.751Z,0.88
2022-11-22T01:25:14.829Z,1.00
2022-11-22T01:27:42.951Z,0.80
2022-11-22T01:30:12.566Z,0.80
2022-11-22T01:32:40.611Z,0.93
2022-11-22T01:35:10.885Z,0.85
2022-11-22T01:37:38.985Z,0.82
2022-11-22T01:40:08.498Z,0.90
2022-11-22T01:42:49.882Z,0.60
2022-11-22T01:45:44.100Z,0.90
2022-11-22T01:48:24.621Z,1.02
2022-11-22T01:50:59.095Z,1.13
2022-11-22T01:53:30.887Z,0.98
2022-11-22T01:56:02.002Z,0.77
2022-11-22T01:58:34.120Z,0.85
2022-11-22T02:01:03.058Z,0.90
2022-11-22T02:03:34.175Z,0.80
2022-11-22T02:06:04.543Z,1.00
2022-11-22T02:08:39.003Z,0.90
2022-11-22T02:11:09.480Z,0.85
2022-11-22T02:13:41.693Z,0.68
2022-11-22T02:16:11.449Z,1.00
2022-11-22T02:18:39.995Z,0.60
2022-11-22T02:21:10.036Z,0.60
2022-11-22T02:26:16.040Z,0.82
2022-11-22T02:31:34.729Z,0.55
2022-11-22T02:34:02.818Z,0.68
2022-11-22T02:36:34.486Z,0.90
2022-11-22T02:39:02.842Z,0.70
2022-11-22T02:41:33.810Z,0.75
2022-11-22T02:44:02.079Z,0.60
2022-11-22T02:46:30.109Z,0.73
2022-11-22T02:48:58.190Z,0.73
2022-11-22T02:51:26.563Z,0.60
2022-11-22T02:53:56.809Z,0.77
2022-11-22T02:56:24.978Z,0.60
2022-11-22T02:58:54.381Z,0.70
2022-11-22T03:01:22.477Z,0.50
2022-11-22T03:03:50.515Z,0.55
2022-11-22T03:06:18.586Z,0.88
2022-11-22T03:08:51.881Z,0.70
2022-11-22T03:11:24.291Z,0.65
2022-11-22T03:13:52.411Z,0.50
2022-11-22T03:16:21.889Z,0.98
2022-11-22T03:18:49.974Z,0.68
2022-11-22T03:21:18.024Z,0.82
2022-11-22T03:23:46.063Z,0.77
2022-11-22T03:26:14.164Z,0.70
2022-11-22T03:28:42.329Z,0.52
2022-11-22T03:31:10.466Z,0.75
2022-11-22T03:33:39.881Z,0.52
2022-11-22T03:36:08.069Z,0.55
2022-11-22T03:38:36.372Z,0.50
2022-11-22T03:41:04.498Z,0.68
2022-11-22T03:43:32.561Z,0.47
2022-11-22T03:46:00.643Z,0.65
2022-11-22T03:48:28.702Z,0.50
2022-11-22T03:51:04.629Z,0.50
2022-11-22T03:53:33.537Z,0.60
2022-11-22T03:56:02.032Z,0.40
2022-11-22T03:58:30.102Z,0.50
2022-11-22T04:00:58.588Z,0.40
2022-11-22T04:03:27.084Z,0.38
2022-11-22T04:05:55.426Z,0.40
2022-11-22T04:08:25.186Z,0.40
2022-11-22T04:10:53.716Z,0.50
2022-11-22T04:13:21.767Z,0.50
2022-11-22T04:15:48.818Z,0.30
2022-11-22T04:18:16.864Z,0.40
2022-11-22T04:21:02.412Z,0.40
2022-11-22T04:23:34.305Z,0.43
2022-11-22T04:26:02.616Z,0.82
2022-11-22T04:29:01.527Z,0.52
2022-11-22T04:31:36.200Z,0.40
2022-11-22T04:34:04.263Z,0.38
2022-11-22T04:36:32.350Z,0.35
2022-11-22T04:39:01.749Z,0.60
2022-11-22T04:41:29.834Z,0.60
2022-11-22T04:44:15.595Z,0.47
2022-11-22T04:46:43.658Z,0.50
2022-11-22T04:49:11.708Z,0.50
2022-11-22T04:51:57.234Z,0.45
2022-11-22T04:54:26.803Z,0.32
2022-11-22T04:56:54.850Z,0.38
2022-11-22T04:59:22.916Z,0.40
2022-11-22T05:01:50.974Z,0.43
2022-11-22T05:04:19.005Z,0.30
2022-11-22T05:06:47.071Z,0.40
2022-11-22T05:09:15.196Z,0.50
2022-11-22T05:11:44.711Z,0.32
2022-11-22T05:14:12.932Z,0.50
2022-11-22T05:16:41.019Z,0.60
2022-11-22T05:19:09.197Z,0.40
2022-11-22T05:21:37.472Z,0.30
2022-11-22T05:24:05.106Z,0.40
2022-11-22T05:26:35.264Z,0.50
2022-11-22T05:29:07.409Z,0.50
2022-11-22T05:31:36.903Z,0.30
2022-11-22T05:34:05.539Z,0.30
2022-11-22T05:36:34.432Z,0.30
2022-11-22T05:39:03.239Z,0.40
2022-11-22T05:41:31.416Z,0.50
2022-11-22T05:43:59.593Z,0.30
2022-11-22T05:46:30.824Z,0.30
2022-11-22T05:48:59.741Z,0.38
2022-11-22T05:51:34.637Z,0.30
2022-11-22T05:54:03.470Z,0.35
2022-11-22T05:56:31.550Z,0.38
2022-11-22T05:58:59.657Z,0.30
2022-11-22T06:01:29.093Z,0.55
2022-11-22T06:03:57.172Z,0.52
2022-11-22T06:06:25.219Z,0.30
2022-11-22T06:08:53.409Z,0.35
2022-11-22T06:11:23.399Z,0.40
2022-11-22T06:16:20.113Z,0.73
2022-11-22T06:18:49.943Z,0.73
2022-11-22T06:21:20.195Z,1.05
2022-11-22T06:23:48.281Z,1.02
2022-11-22T06:26:17.796Z,1.40
2022-11-22T06:28:46.836Z,0.85
2022-11-22T06:31:16.684Z,0.80
2022-11-22T06:33:45.272Z,1.77
2022-11-22T06:36:16.402Z,0.80
2022-11-22T06:38:45.408Z,1.20
2022-11-22T06:41:15.349Z,0.82
2022-11-22T06:43:48.681Z,1.60
2022-11-22T06:46:18.540Z,0.90
2022-11-22T06:48:46.978Z,1.42
2022-11-22T06:51:18.537Z,0.85
2022-11-22T06:53:48.749Z,1.40
2022-11-22T06:56:18.716Z,1.27
2022-11-22T06:58:48.338Z,1.58
2022-11-22T07:01:19.468Z,1.90
2022-11-22T07:03:48.407Z,2.47
2022-11-22T07:06:19.889Z,1.92
2022-11-22T07:08:48.737Z,1.95
2022-11-22T07:11:18.744Z,1.88
2022-11-22T07:16:16.550Z,2.72
2022-11-22T07:18:45.096Z,2.60
2022-11-22T07:21:14.706Z,3.00
2022-11-22T07:23:46.264Z,3.08
2022-11-22T07:26:15.968Z,3.00
2022-11-22T07:28:45.786Z,2.95
2022-11-22T07:31:15.633Z,3.20
2022-11-22T07:33:44.254Z,2.85
2022-11-22T07:36:14.098Z,3.13
2022-11-22T07:38:44.044Z,2.83
2022-11-22T07:41:12.149Z,3.30
2022-11-22T07:43:40.261Z,3.25
2022-11-22T07:46:12.699Z,2.97
2022-11-22T07:48:40.726Z,2.78
2022-11-22T07:51:09.660Z,2.65
2022-11-22T07:53:37.704Z,3.00
2022-11-22T07:56:08.031Z,2.53
2022-11-22T07:58:37.567Z,3.15
2022-11-22T08:01:07.472Z,2.70
2022-11-22T08:06:05.999Z,2.88
2022-11-22T08:08:34.386Z,2.25
2022-11-22T08:11:02.680Z,2.50
2022-11-22T08:13:32.687Z,1.95
2022-11-22T08:18:34.179Z,3.17
2022-11-22T08:21:10.020Z,2.33
2022-11-22T08:23:39.398Z,1.85
2022-11-22T08:26:08.865Z,2.10
2022-11-22T08:28:38.265Z,2.03
2022-11-22T08:31:09.592Z,2.47
2022-11-22T08:33:37.676Z,2.03
2022-11-22T08:36:06.908Z,2.67
2022-11-22T08:38:35.962Z,2.40
2022-11-22T08:41:05.059Z,1.98
2022-11-22T08:43:33.730Z,2.37
2022-11-22T08:46:03.333Z,1.65
2022-11-22T08:48:33.751Z,1.55
2022-11-22T08:51:03.839Z,1.95
2022-11-22T08:56:01.926Z,2.35
2022-11-22T08:58:31.455Z,1.52
2022-11-22T09:01:06.645Z,2.08
2022-11-22T09:03:35.802Z,1.58
2022-11-22T09:09:15.095Z,1.95
2022-11-22T09:11:40.999Z,1.48
2022-11-22T09:14:09.040Z,1.67
2022-11-22T09:16:38.496Z,1.38
2022-11-22T09:19:06.574Z,1.42
2022-11-22T09:21:34.635Z,1.33
2022-11-22T09:24:02.935Z,1.30
2022-11-22T09:26:31.006Z,1.38
2022-11-22T09:28:59.081Z,1.80
2022-11-22T09:31:27.280Z,1.45
2022-11-22T09:33:56.673Z,1.20
2022-11-22T09:36:26.942Z,1.55
2022-11-22T09:38:56.171Z,1.70
2022-11-22T09:41:56.911Z,1.57
2022-11-22T09:44:36.923Z,1.58
2022-11-22T09:49:49.719Z,1.50
2022-11-22T09:52:24.275Z,1.13
2022-11-22T09:54:56.771Z,1.40
2022-11-22T09:57:28.490Z,1.17
2022-11-22T10:00:03.866Z,1.20
2022-11-22T10:02:58.981Z,1.23
2022-11-22T10:05:33.117Z,2.22
2022-11-22T10:08:06.063Z,3.10
2022-11-22T10:10:40.821Z,1.95
2022-11-22T10:13:16.758Z,1.98
2022-11-22T10:15:51.111Z,1.60
2022-11-22T10:18:24.920Z,1.58
2022-11-22T10:20:54.926Z,1.60
2022-11-22T10:25:58.682Z,1.63
2022-11-22T10:28:34.739Z,2.05
2022-11-22T10:31:08.943Z,1.20
2022-11-22T10:33:44.702Z,1.30
2022-11-22T10:36:26.152Z,1.40
2022-11-22T10:39:22.231Z,1.10
2022-11-22T10:42:10.230Z,1.20
2022-11-22T10:44:48.540Z,1.80
2022-11-22T10:47:22.310Z,1.95
2022-11-22T10:50:02.038Z,1.80
2022-11-22T10:52:38.721Z,1.52
2022-11-22T10:55:23.901Z,1.23
2022-11-22T10:58:00.470Z,1.13
2022-11-22T11:00:32.248Z,1.20
2022-11-22T11:03:07.243Z,1.20
2022-11-22T11:05:54.957Z,1.10
2022-11-22T11:09:02.641Z,1.48
2022-11-22T11:11:27.915Z,1.20
2022-11-22T11:13:59.321Z,0.85
2022-11-22T11:16:32.083Z,1.05
2022-11-22T11:19:08.209Z,1.02
2022-11-22T11:21:37.687Z,1.42
2022-11-22T11:24:13.967Z,1.38
2022-11-22T11:26:44.014Z,0.88
2022-11-22T11:29:38.513Z,1.70
2022-11-22T11:32:14.664Z,1.13
2022-11-22T11:34:49.130Z,1.02
2022-11-22T11:37:26.195Z,1.40
2022-11-22T11:39:55.611Z,0.90
2022-11-22T11:42:27.021Z,1.48
2022-11-22T11:44:56.114Z,1.10
2022-11-22T11:47:34.958Z,0.93
2022-11-22T11:50:03.025Z,1.45
2022-11-22T11:52:31.724Z,1.10
2022-11-22T11:55:03.122Z,1.00
2022-11-22T11:57:34.910Z,1.00
2022-11-22T12:00:05.345Z,1.02
2022-11-22T12:02:39.912Z,2.22
2022-11-22T12:05:25.317Z,1.73
2022-11-22T12:07:53.493Z,1.00
2022-11-22T12:10:32.407Z,1.10
2022-11-22T12:13:06.505Z,1.02
2022-11-22T12:15:44.398Z,0.63
2022-11-22T12:18:28.766Z,1.00
2022-11-22T12:21:05.043Z,1.08
2022-11-22T12:23:44.386Z,1.05
2022-11-22T12:26:16.396Z,1.27
2022-11-22T12:28:44.800Z,0.90
2022-11-22T12:31:26.520Z,0.80
2022-11-22T12:33:57.487Z,1.10
2022-11-22T12:36:32.932Z,0.73
2022-11-22T12:39:04.122Z,1.15
2022-11-22T12:41:35.272Z,1.20
2022-11-22T12:44:06.051Z,1.20
2022-11-22T12:46:40.727Z,1.33
2022-11-22T12:49:16.574Z,1.08
2022-11-22T12:51:48.569Z,1.10
2022-11-22T12:54:21.059Z,0.70
2022-11-22T12:56:54.428Z,1.15
2022-11-22T12:59:30.423Z,0.73
2022-11-22T13:02:06.117Z,0.93
2022-11-22T13:04:46.599Z,0.80
2022-11-22T13:07:20.009Z,2.60
2022-11-22T13:09:56.385Z,1.85
2022-11-22T13:12:30.855Z,1.27
2022-11-22T13:15:00.236Z,1.17
2022-11-22T13:17:34.007Z,1.02
2022-11-22T13:20:07.986Z,0.90
2022-11-22T13:22:52.971Z,1.30
2022-11-22T13:25:46.545Z,1.13
2022-11-22T13:28:19.806Z,1.20
2022-11-22T13:31:06.862Z,0.90
2022-11-22T13:33:36.515Z,0.98
2022-11-22T13:36:46.054Z,1.00
2022-11-22T13:39:19.989Z,0.73
2022-11-22T13:42:01.451Z,0.68
2022-11-22T13:44:39.634Z,1.00
2022-11-22T13:47:46.198Z,1.08
2022-11-22T13:50:56.859Z,0.70
2022-11-22T13:53:35.551Z,0.80
2022-11-22T13:56:40.681Z,0.85
2022-11-22T13:59:16.571Z,1.15
2022-11-22T14:02:02.078Z,1.20
2022-11-22T14:04:44.749Z,0.90
2022-11-22T14:07:35.891Z,0.93
2022-11-22T14:10:06.160Z,0.77
2022-11-22T14:13:13.626Z,1.00
2022-11-22T14:15:54.991Z,1.50
2022-11-22T14:18:44.869Z,1.13
2022-11-22T14:21:18.629Z,0.98
2022-11-22T14:24:02.702Z,1.10
2022-11-22T14:26:37.739Z,1.30
2022-11-22T14:29:37.097Z,1.05
2022-11-22T14:32:15.165Z,1.38
2022-11-22T14:35:22.442Z,0.82
2022-11-22T14:38:32.872Z,0.85
2022-11-22T14:41:46.458Z,0.75
2022-11-22T14:44:20.099Z,0.95
2022-11-22T14:46:54.500Z,0.85
2022-11-22T14:49:32.893Z,0.98
2022-11-22T14:52:03.565Z,1.95
2022-11-22T14:54:41.634Z,2.63
2022-11-22T14:57:15.860Z,2.13
2022-11-22T15:00:18.197Z,1.52
2022-11-22T15:03:28.992Z,1.48
2022-11-22T15:09:17.449Z,1.90
2022-11-22T15:09:42.103Z,1.42
2022-11-22T15:12:35.622Z,1.02
2022-11-22T15:59:14.566Z,0.95
2022-11-22T16:01:45.177Z,0.80
2022-11-22T16:04:23.049Z,1.10
2022-11-22T16:06:52.790Z,1.00
2022-11-22T16:09:33.217Z,1.30
2022-11-22T16:12:03.075Z,1.02
2022-11-22T16:14:47.542Z,1.55
2022-11-22T16:17:27.980Z,1.90
2022-11-22T16:20:26.939Z,2.88
2022-11-22T16:23:19.825Z,3.13
2022-11-22T16:25:49.957Z,2.90
2022-11-22T16:30:59.163Z,2.45
2022-11-22T16:33:27.635Z,2.72
2022-11-22T16:35:57.342Z,3.22
2022-11-22T16:38:26.616Z,2.65
2022-11-22T16:40:57.351Z,2.77
2022-11-22T16:43:27.004Z,2.80
2022-11-22T16:45:55.205Z,3.03
2022-11-22T16:48:33.932Z,2.63
2022-11-22T16:51:05.185Z,2.28
2022-11-22T16:53:41.407Z,2.60
2022-11-22T16:56:10.130Z,2.25
2022-11-22T16:58:38.222Z,2.55
2022-11-22T17:01:06.429Z,2.33
2022-11-22T17:03:39.445Z,2.20
2022-11-22T17:06:07.923Z,2.35
2022-11-22T17:08:36.088Z,2.63
2022-11-22T17:11:04.134Z,2.50
2022-11-22T17:13:32.212Z,2.83
2022-11-22T17:16:00.241Z,2.75
2022-11-22T17:18:28.402Z,2.50
2022-11-22T17:20:57.933Z,2.20
2022-11-22T17:23:29.190Z,2.33
2022-11-22T17:25:57.287Z,2.35
2022-11-22T17:28:25.449Z,2.25
2022-11-22T17:30:53.832Z,2.05
2022-11-22T17:33:22.005Z,2.17
2022-11-22T17:35:50.024Z,2.40
2022-11-22T17:38:19.676Z,2.65
2022-11-22T17:40:50.078Z,2.10
2022-11-22T17:43:18.220Z,2.53
2022-11-22T17:45:46.477Z,2.47
2022-11-22T17:48:14.600Z,1.80
2022-11-22T17:50:42.667Z,2.30
2022-11-22T17:53:11.017Z,2.67
2022-11-22T17:56:08.864Z,2.03
2022-11-22T17:58:29.196Z,1.90
2022-11-22T18:01:04.522Z,2.00
2022-11-22T18:03:32.984Z,2.17
2022-11-22T18:06:01.140Z,2.10
2022-11-22T18:08:29.573Z,2.13
2022-11-22T18:11:00.750Z,2.28
2022-11-22T18:13:30.498Z,1.90
2022-11-22T18:16:03.505Z,2.10
2022-11-22T18:21:20.170Z,2.33
2022-11-22T18:23:48.300Z,2.10
2022-11-22T18:31:54.263Z,1.70
2022-11-22T18:34:22.882Z,2.45
2022-11-22T18:37:06.957Z,2.00
2022-11-22T18:39:37.697Z,1.80
2022-11-22T18:42:09.958Z,1.83
2022-11-22T18:44:38.033Z,1.58
2022-11-22T18:47:06.219Z,1.90
2022-11-22T18:49:35.108Z,1.83
2022-11-22T18:52:03.524Z,1.50
2022-11-22T18:54:31.994Z,1.58
2022-11-22T18:57:00.229Z,1.50
2022-11-22T18:59:29.692Z,1.50
2022-11-22T19:01:57.766Z,1.70
2022-11-22T19:04:25.821Z,1.45
2022-11-22T19:06:55.439Z,1.65
2022-11-22T19:09:23.535Z,1.42
2022-11-22T19:11:58.175Z,1.30
2022-11-22T19:14:29.085Z,1.60
2022-11-22T19:16:58.978Z,1.60
2022-11-22T19:19:27.690Z,1.63
2022-11-22T19:21:55.758Z,1.40
2022-11-22T19:24:23.874Z,1.58
2022-11-22T19:26:52.058Z,1.27
2022-11-22T19:29:20.572Z,1.30
2022-11-22T19:31:48.793Z,0.93
2022-11-22T19:34:18.240Z,1.05
2022-11-22T19:36:46.296Z,1.10
2022-11-22T19:39:15.823Z,0.90
2022-11-22T19:41:45.207Z,3.00
2022-11-22T19:44:13.373Z,2.20
2022-11-22T19:46:41.632Z,2.45
2022-11-22T19:49:10.487Z,1.77
2022-11-22T19:51:40.059Z,2.08
2022-11-22T19:54:08.518Z,1.90
2022-11-22T19:56:38.986Z,1.65
2022-11-22T19:59:10.405Z,1.70
2022-11-22T20:01:39.665Z,1.90
2022-11-22T20:04:08.550Z,1.40
2022-11-22T20:06:38.868Z,1.02
2022-11-22T20:09:10.329Z,1.38
2022-11-22T20:11:39.727Z,1.00
2022-11-22T20:14:09.340Z,1.05
2022-11-22T20:16:39.228Z,1.48
2022-11-22T20:19:09.619Z,0.80
2022-11-22T20:21:40.148Z,1.52
2022-11-22T20:24:08.742Z,1.13
2022-11-22T20:26:37.383Z,1.17
2022-11-22T20:29:07.710Z,1.10
2022-11-22T20:31:37.950Z,1.15
2022-11-22T20:34:06.303Z,0.80
2022-11-22T20:36:36.023Z,0.90
2022-11-22T20:39:10.356Z,1.00
2022-11-22T20:41:40.521Z,0.80
2022-11-22T20:44:12.072Z,0.90
2022-11-22T20:46:41.079Z,0.70
2022-11-22T20:49:09.239Z,0.98
2022-11-22T20:51:39.739Z,0.80
2022-11-22T20:54:10.384Z,0.60
2022-11-22T20:56:39.101Z,1.02
2022-11-22T20:59:07.320Z,0.60
2022-11-22T21:01:35.578Z,0.80
2022-11-22T21:04:03.963Z,1.00
2022-11-22T21:06:32.909Z,0.57
2022-11-22T21:09:01.007Z,0.60
2022-11-22T21:11:31.038Z,0.55
2022-11-22T21:16:28.849Z,0.70
2022-11-22T21:18:58.389Z,0.70
2022-11-22T21:21:26.949Z,0.60
2022-11-22T21:23:56.261Z,0.70
2022-11-22T21:26:25.459Z,0.80
2022-11-22T21:28:55.017Z,0.50
2022-11-22T21:31:23.997Z,0.82
2022-11-22T21:33:52.642Z,0.60
2022-11-22T21:36:21.738Z,0.73
2022-11-22T21:38:49.963Z,0.47
2022-11-22T21:44:11.256Z,0.50
2022-11-22T21:46:39.859Z,0.70
2022-11-22T21:49:08.181Z,0.60
2022-11-22T21:51:36.339Z,0.60
2022-11-22T21:54:05.618Z,0.60
2022-11-22T21:56:33.906Z,0.60
2022-11-22T21:59:02.256Z,0.75
2022-11-22T22:01:32.073Z,0.68
2022-11-22T22:04:00.208Z,0.60
2022-11-22T22:06:28.306Z,0.60
2022-11-22T22:08:56.529Z,0.55
2022-11-22T22:11:24.719Z,0.55
2022-11-22T22:13:54.238Z,0.57
2022-11-22T22:16:23.784Z,0.70
2022-11-22T22:18:53.984Z,0.60
2022-11-22T22:21:22.346Z,0.50
2022-11-22T22:23:50.404Z,0.52
2022-11-22T22:26:19.041Z,0.70
2022-11-22T22:28:47.430Z,0.55
2022-11-22T22:31:21.436Z,0.60
2022-11-22T22:33:51.019Z,0.60
2022-11-22T22:36:20.850Z,0.50
2022-11-22T22:38:49.244Z,0.57
2022-11-22T22:41:17.928Z,0.65
2022-11-22T22:43:47.641Z,0.60
2022-11-22T22:46:18.107Z,0.50
2022-11-22T22:48:46.893Z,0.70
2022-11-22T22:51:17.211Z,0.80
2022-11-22T22:53:47.375Z,0.52
2022-11-22T22:56:16.949Z,0.57
2022-11-22T22:58:45.487Z,0.50
2022-11-22T23:01:17.456Z,0.75
2022-11-22T23:03:48.849Z,0.60
2022-11-22T23:06:17.718Z,0.52
2022-11-22T23:08:48.545Z,0.85
2022-11-22T23:11:18.343Z,0.40
2022-11-22T23:13:46.548Z,0.52
2022-11-22T23:16:16.083Z,0.35
2022-11-22T23:18:45.656Z,0.43
2022-11-22T23:21:16.261Z,0.52
2022-11-22T23:23:44.323Z,0.50
2022-11-22T23:26:14.335Z,0.50
2022-11-22T23:31:12.288Z,0.80
2022-11-22T23:36:10.938Z,0.40
2022-11-22T23:38:39.140Z,0.52
2022-11-22T23:41:07.589Z,0.50
2022-11-22T23:43:36.993Z,0.50
2022-11-22T23:46:05.330Z,0.50
2022-11-22T23:48:33.393Z,0.55
2022-11-22T23:51:04.776Z,0.50
2022-11-22T23:53:32.831Z,0.50
2022-11-22T23:56:06.182Z,0.50
2022-11-22T23:58:34.280Z,0.47
